Time;durP1;ratioP1;P1;durP2;ratioP2;P2;SDS_P1;SDS_P2;PMS_P1;PMS_P2;Temp;Humidity;BMP_temperature;BMP_pressure;BME280_temperature;BME280_humidity;BME280_pressure;Samples;Min_cycle;Max_cycle;Signal;HPM_P1;HPM_P2
2022/02/14 00:02:15;;;;;;;3.30;1.55;;;8.40;96.00;;;;;;4970139;28;20035;-75
2022/02/14 00:04:42;;;;;;;5.45;1.88;;;8.30;96.30;;;;;;4970159;28;20030;-75
2022/02/14 00:07:07;;;;;;;2.78;1.50;;;8.90;96.80;;;;;;4969881;28;20092;-75
2022/02/14 00:09:33;;;;;;;5.80;2.33;;;8.10;96.50;;;;;;4969541;28;20077;-75
2022/02/14 00:12:00;;;;;;;5.05;1.98;;;8.40;96.40;;;;;;4970076;28;20447;-75
2022/02/14 00:14:27;;;;;;;5.38;1.20;;;8.40;96.60;;;;;;4969966;28;20034;-75
2022/02/14 00:16:56;;;;;;;6.57;1.90;;;10.70;96.90;;;;;;4969916;28;20027;-75
2022/02/14 00:19:22;;;;;;;4.32;1.67;;;8.30;95.50;;;;;;4969061;28;20869;-75
2022/02/14 00:21:48;;;;;;;3.70;1.48;;;8.30;96.50;;;;;;4969715;28;20119;-75
2022/02/14 00:24:15;;;;;;;5.63;1.67;;;8.20;96.30;;;;;;4969964;28;20499;-75
2022/02/14 00:26:41;;;;;;;3.33;1.38;;;8.30;96.40;;;;;;4970503;28;20023;-75
2022/02/14 00:29:06;;;;;;;4.88;1.55;;;8.30;96.40;;;;;;4972632;28;20031;-75
2022/02/14 00:31:33;;;;;;;4.32;1.92;;;9.00;96.50;;;;;;4972993;28;20096;-75
2022/02/14 00:33:59;;;;;;;5.43;2.00;;;8.20;96.40;;;;;;4955919;28;20053;-75
2022/02/14 00:36:25;;;;;;;3.95;1.65;;;8.20;96.30;;;;;;4955556;28;20088;-75
2022/02/14 00:38:51;;;;;;;3.05;1.50;;;8.10;96.40;;;;;;4972349;28;20031;-75
2022/02/14 00:41:16;;;;;;;3.47;1.50;;;9.50;97.40;;;;;;4973133;28;20113;-75
2022/02/14 00:43:42;;;;;;;7.95;1.50;;;8.00;97.30;;;;;;4973002;28;20055;-75
2022/02/14 00:46:08;;;;;;;5.63;1.63;;;7.90;96.80;;;;;;4973947;28;20031;-75
2022/02/14 00:48:33;;;;;;;3.10;1.40;;;8.10;96.80;;;;;;4972366;28;20038;-76
2022/02/14 00:50:59;;;;;;;4.72;1.33;;;8.20;96.70;;;;;;4972730;28;20035;-76
2022/02/14 00:53:25;;;;;;;4.40;1.58;;;8.10;96.60;;;;;;4973245;28;20045;-76
2022/02/14 00:55:50;;;;;;;3.72;1.42;;;8.10;96.10;;;;;;4972772;28;20031;-76
2022/02/14 00:58:16;;;;;;;3.55;1.73;;;8.20;96.30;;;;;;4972658;28;20130;-76
2022/02/14 01:00:42;;;;;;;3.40;1.45;;;8.20;96.40;;;;;;4972209;28;20031;-76
2022/02/14 01:03:08;;;;;;;3.17;1.50;;;8.40;96.20;;;;;;4972870;28;20032;-76
2022/02/14 01:05:34;;;;;;;3.50;1.50;;;9.30;96.40;;;;;;4955392;28;20487;-76
2022/02/14 01:07:59;;;;;;;3.65;1.67;;;8.80;96.00;;;;;;4972557;28;20403;-76
2022/02/14 01:10:25;;;;;;;3.90;1.42;;;9.50;96.50;;;;;;4971937;28;20058;-76
2022/02/14 01:12:51;;;;;;;3.45;1.38;;;8.40;95.90;;;;;;4972634;28;20678;-76
2022/02/14 01:15:17;;;;;;;5.65;1.58;;;8.40;95.70;;;;;;4972590;28;20037;-76
2022/02/14 01:17:42;;;;;;;3.22;1.20;;;8.40;95.60;;;;;;4972466;28;20039;-76
2022/02/14 01:20:12;;;;;;;7.78;1.67;;;8.50;95.50;;;;;;4971730;28;20403;-76
2022/02/14 01:22:39;;;;;;;3.40;1.58;;;9.10;95.40;;;;;;4954982;28;20418;-76
2022/02/14 01:25:06;;;;;;;4.63;1.55;;;8.70;95.10;;;;;;4972261;28;20027;-76
2022/02/14 01:27:32;;;;;;;2.67;1.40;;;8.40;94.70;;;;;;4972371;28;20560;-76
2022/02/14 01:29:57;;;;;;;3.58;1.50;;;9.50;95.10;;;;;;4971676;28;20039;-76
2022/02/14 01:32:23;;;;;;;2.90;1.25;;;8.30;94.70;;;;;;4954866;28;20483;-76
2022/02/14 01:34:50;;;;;;;3.80;1.27;;;8.40;95.00;;;;;;4972225;28;20042;-76
2022/02/14 01:37:16;;;;;;;5.63;1.52;;;8.30;95.10;;;;;;4972056;28;20046;-76
2022/02/14 01:39:41;;;;;;;6.80;1.60;;;8.30;95.30;;;;;;4970944;28;20109;-76
2022/02/14 01:42:08;;;;;;;4.88;1.42;;;8.30;95.50;;;;;;4972397;28;20030;-76
2022/02/14 01:44:46;;;;;;;4.03;1.55;;;7.90;96.20;;;;;;4972053;28;20076;-76
2022/02/14 01:47:14;;;;;;;6.07;1.83;;;7.70;99.40;;;;;;4972236;28;20089;-76
2022/02/14 01:49:41;;;;;;;5.45;1.60;;;7.70;99.90;;;;;;4971660;28;20506;-75
2022/02/14 01:52:08;;;;;;;3.28;1.30;;;8.40;99.90;;;;;;4971436;28;20494;-75
2022/02/14 01:54:39;;;;;;;2.05;1.23;;;7.40;99.90;;;;;;4954809;28;21051;-75
2022/02/14 01:57:06;;;;;;;3.10;1.35;;;7.00;99.90;;;;;;4971853;28;20046;-75
2022/02/14 01:59:33;;;;;;;3.72;1.85;;;6.70;99.90;;;;;;4971214;28;20539;-75
2022/02/14 02:01:59;;;;;;;4.53;1.52;;;6.50;99.90;;;;;;4971964;28;20494;-75
2022/02/14 02:04:25;;;;;;;4.50;1.70;;;6.70;99.90;;;;;;4971937;28;20343;-75
2022/02/14 02:06:51;;;;;;;6.55;2.40;;;7.60;99.90;;;;;;4971335;28;20098;-75
2022/02/14 02:09:16;;;;;;;4.82;1.60;;;6.70;99.90;;;;;;4954059;28;20037;-75
2022/02/14 02:14:26;;;;;;;5.18;1.73;;;7.50;99.90;;;;;;4971661;28;20140;-75
2022/02/14 02:16:52;;;;;;;3.65;1.65;;;6.10;99.90;;;;;;4954477;28;20715;-75
2022/02/14 02:19:18;;;;;;;4.32;1.63;;;6.70;99.90;;;;;;4971162;28;20042;-75
2022/02/14 02:21:50;;;;;;;3.92;1.80;;;5.70;99.90;;;;;;4953338;28;20031;-75
2022/02/14 02:24:19;;;;;;;4.18;2.03;;;5.50;99.90;;;;;;4954132;28;20577;-75
2022/02/14 02:26:58;;;;;;;6.63;1.80;;;6.70;99.90;;;;;;4954259;28;20035;-75
2022/02/14 02:29:24;;;;;;;2.25;1.40;;;5.90;99.90;;;;;;4971044;28;20035;-75
2022/02/14 02:31:50;;;;;;;3.17;1.83;;;5.10;99.90;;;;;;4972076;28;20035;-75
2022/02/14 02:34:17;;;;;;;6.03;1.92;;;4.90;99.90;;;;;;4988497;28;20011;-75
2022/02/14 02:36:46;;;;;;;4.38;2.05;;;4.90;99.90;;;;;;4996292;28;20056;-75
2022/02/14 02:39:12;;;;;;;3.30;1.70;;;4.90;99.90;;;;;;4988126;28;20038;-75
2022/02/14 02:41:37;;;;;;;4.03;1.73;;;4.90;99.90;;;;;;4992606;28;20038;-75
2022/02/14 02:44:03;;;;;;;4.30;1.63;;;4.90;99.90;;;;;;4972385;28;20043;-75
2022/02/14 02:46:29;;;;;;;2.90;1.75;;;4.70;99.90;;;;;;4971645;28;20034;-75
2022/02/14 02:48:54;;;;;;;4.10;1.73;;;4.70;99.90;;;;;;4953921;28;20065;-76
2022/02/14 02:51:20;;;;;;;3.83;1.98;;;4.60;99.90;;;;;;4971357;28;20538;-75
2022/02/14 02:53:45;;;;;;;4.70;1.80;;;5.70;99.90;;;;;;4954925;28;20080;-76
2022/02/14 02:56:11;;;;;;;3.90;1.90;;;4.80;99.90;;;;;;4972171;28;20023;-76
2022/02/14 02:58:36;;;;;;;4.60;1.98;;;4.70;99.90;;;;;;4971366;28;20047;-76
2022/02/14 03:01:02;;;;;;;3.95;2.00;;;4.70;99.90;;;;;;4954392;28;20443;-76
2022/02/14 03:03:28;;;;;;;5.57;2.10;;;4.60;99.90;;;;;;4970833;28;20027;-76
2022/02/14 03:05:53;;;;;;;4.38;2.67;;;4.40;99.90;;;;;;4970757;28;20108;-76
2022/02/14 03:08:19;;;;;;;4.95;2.22;;;4.40;99.90;;;;;;4970788;28;20035;-76
2022/02/14 03:10:45;;;;;;;3.90;1.85;;;4.30;99.90;;;;;;4970235;28;20022;-76
2022/02/14 03:13:10;;;;;;;5.45;1.90;;;4.30;99.90;;;;;;4970610;28;20084;-76
2022/02/14 03:15:36;;;;;;;5.45;1.77;;;5.70;99.90;;;;;;4970764;28;20038;-76
2022/02/14 03:18:02;;;;;;;4.75;2.30;;;4.00;99.90;;;;;;4953497;28;20609;-76
2022/02/14 03:20:28;;;;;;;4.90;2.30;;;4.00;99.90;;;;;;4969962;28;20031;-76
2022/02/14 03:22:53;;;;;;;6.32;2.28;;;3.90;99.90;;;;;;4970480;28;20027;-76
2022/02/14 03:25:19;;;;;;;4.35;1.88;;;3.70;99.90;;;;;;4970739;28;20049;-76
2022/02/14 03:27:45;;;;;;;3.53;1.90;;;3.70;99.90;;;;;;4970686;28;20027;-76
2022/02/14 03:30:11;;;;;;;4.95;2.42;;;3.50;99.90;;;;;;4952516;28;20034;-76
2022/02/14 03:32:37;;;;;;;5.45;2.45;;;3.40;99.90;;;;;;4970698;28;20084;-76
2022/02/14 03:35:03;;;;;;;6.70;2.55;;;3.30;99.90;;;;;;4970569;28;20477;-76
2022/02/14 03:37:28;;;;;;;5.70;2.20;;;3.20;99.90;;;;;;4970351;28;20111;-76
2022/02/14 03:39:54;;;;;;;3.45;2.15;;;3.10;99.90;;;;;;4969932;28;20109;-76
2022/02/14 03:42:20;;;;;;;6.50;3.95;;;2.90;99.90;;;;;;4970238;28;20035;-76
2022/02/14 03:44:45;;;;;;;5.97;3.00;;;2.90;99.90;;;;;;4970257;28;20027;-76
2022/02/14 03:47:11;;;;;;;7.72;4.63;;;3.00;99.90;;;;;;4970318;28;20096;-76
2022/02/14 03:49:37;;;;;;;11.10;5.03;;;2.90;99.90;;;;;;4969818;28;20445;-76
2022/02/14 03:52:03;;;;;;;19.20;8.85;;;2.70;99.90;;;;;;4969841;28;20039;-76
2022/02/14 03:54:29;;;;;;;13.13;6.13;;;2.50;99.90;;;;;;4970345;28;20034;-76
2022/02/14 03:56:55;;;;;;;11.20;5.72;;;2.40;99.90;;;;;;4970163;28;20081;-76
2022/02/14 03:59:20;;;;;;;9.82;3.88;;;2.30;99.90;;;;;;4952338;28;20348;-76
2022/02/14 04:01:46;;;;;;;7.18;4.15;;;2.20;99.90;;;;;;4952126;28;20051;-76
2022/02/14 04:04:12;;;;;;;13.07;4.65;;;2.00;99.90;;;;;;4970125;28;20484;-75
2022/02/14 04:06:38;;;;;;;7.95;4.35;;;1.90;99.90;;;;;;4969946;28;20047;-75
2022/02/14 04:09:03;;;;;;;12.27;5.43;;;2.20;99.90;;;;;;4969508;28;20519;-75
2022/02/14 04:11:29;;;;;;;7.03;4.13;;;2.10;99.90;;;;;;4969913;28;20031;-75
2022/02/14 04:13:55;;;;;;;6.97;3.67;;;2.00;99.90;;;;;;4970066;28;20035;-75
2022/02/14 04:16:20;;;;;;;7.57;3.80;;;2.10;99.90;;;;;;4952796;28;20106;-75
2022/02/14 04:18:46;;;;;;;7.50;3.40;;;1.90;99.90;;;;;;4969329;28;20487;-75
2022/02/14 04:21:11;;;;;;;7.78;3.63;;;2.00;99.90;;;;;;4969582;28;20503;-75
2022/02/14 04:23:37;;;;;;;8.15;4.75;;;1.90;99.90;;;;;;4970207;28;20031;-75
2022/02/14 04:26:03;;;;;;;8.57;4.30;;;1.80;99.90;;;;;;4969982;28;20094;-76
2022/02/14 04:28:28;;;;;;;9.48;4.53;;;1.90;99.90;;;;;;4969717;28;20161;-76
2022/02/14 04:30:54;;;;;;;7.82;4.50;;;1.80;99.90;;;;;;4969728;28;20051;-76
2022/02/14 04:33:20;;;;;;;11.20;4.63;;;1.90;99.90;;;;;;4970052;28;20038;-76
2022/02/14 04:35:45;;;;;;;11.13;4.80;;;1.90;99.90;;;;;;4969844;28;20457;-76
2022/02/14 04:38:11;;;;;;;10.73;4.10;;;1.80;99.90;;;;;;4969785;28;20042;-76
2022/02/14 04:40:39;;;;;;;7.53;3.88;;;1.60;99.90;;;;;;4968958;28;20118;-76
2022/02/14 04:43:05;;;;;;;6.43;3.40;;;1.70;99.90;;;;;;4972972;28;20023;-75
2022/02/14 04:45:31;;;;;;;7.20;4.10;;;1.60;99.90;;;;;;4992143;28;20054;-76
2022/02/14 04:47:58;;;;;;;10.80;4.30;;;1.50;99.90;;;;;;4970381;28;20404;-76
2022/02/14 04:50:24;;;;;;;9.60;4.00;;;1.60;99.90;;;;;;4968955;28;20042;-76
2022/02/14 04:52:50;;;;;;;8.23;3.22;;;2.30;99.90;;;;;;4969452;28;20042;-76
2022/02/14 04:55:17;;;;;;;8.95;3.47;;;2.10;99.90;;;;;;4969560;28;20037;-75
2022/02/14 04:57:42;;;;;;;6.65;3.25;;;1.40;99.90;;;;;;4969326;28;20388;-75
2022/02/14 05:00:12;;;;;;;8.93;3.35;;;1.20;99.90;;;;;;4968943;28;20050;-75
2022/02/14 05:02:37;;;;;;;7.38;3.20;;;1.20;99.90;;;;;;4952475;28;20084;-76
2022/02/14 05:05:04;;;;;;;7.10;3.55;;;1.30;99.90;;;;;;4969431;28;20407;-75
2022/02/14 05:07:30;;;;;;;8.20;3.33;;;1.40;99.90;;;;;;4969130;28;20033;-75
2022/02/14 05:09:56;;;;;;;10.52;3.30;;;1.40;99.90;;;;;;4968874;28;20481;-75
2022/02/14 05:12:22;;;;;;;8.00;3.60;;;1.40;99.90;;;;;;4969490;28;20114;-75
2022/02/14 05:14:47;;;;;;;5.72;3.10;;;1.20;99.90;;;;;;4971621;28;20104;-76
2022/02/14 05:17:15;;;;;;;5.53;2.75;;;1.10;99.90;;;;;;4972405;28;20411;-75
2022/02/14 05:19:41;;;;;;;8.52;4.03;;;0.90;99.90;;;;;;4971782;28;20022;-76
2022/02/14 05:22:07;;;;;;;8.52;3.53;;;0.80;99.90;;;;;;4955008;28;20072;-76
2022/02/14 05:24:32;;;;;;;6.13;3.30;;;0.80;99.90;;;;;;4972688;28;20084;-76
2022/02/14 05:26:58;;;;;;;9.07;3.50;;;0.90;99.90;;;;;;4972658;28;20031;-76
2022/02/14 05:29:24;;;;;;;6.07;3.38;;;1.00;99.90;;;;;;4972278;28;20038;-76
2022/02/14 05:31:50;;;;;;;14.77;6.63;;;0.90;99.90;;;;;;4973254;28;20030;-76
2022/02/14 05:34:16;;;;;;;8.00;3.53;;;1.00;99.90;;;;;;4954076;28;20406;-76
2022/02/14 05:36:41;;;;;;;7.07;3.78;;;1.10;99.90;;;;;;4972192;28;20088;-76
2022/02/14 05:39:08;;;;;;;8.75;3.42;;;1.10;99.90;;;;;;4971517;28;20046;-76
2022/02/14 05:41:34;;;;;;;7.30;3.65;;;1.50;99.90;;;;;;4972049;28;20066;-76
2022/02/14 05:44:01;;;;;;;6.30;3.47;;;1.10;99.90;;;;;;4972196;28;20022;-76
2022/02/14 05:46:28;;;;;;;5.88;2.75;;;0.90;99.90;;;;;;4954922;28;20027;-76
2022/02/14 05:48:54;;;;;;;13.38;3.30;;;0.80;99.90;;;;;;4971560;28;20039;-75
2022/02/14 05:51:20;;;;;;;8.32;3.13;;;0.80;99.90;;;;;;4968488;28;20049;-75
2022/02/14 05:53:46;;;;;;;7.95;3.05;;;0.90;99.90;;;;;;4972080;28;20037;-75
2022/02/14 05:56:14;;;;;;;6.25;2.97;;;1.00;99.90;;;;;;4954690;28;20035;-75
2022/02/14 05:58:40;;;;;;;6.28;3.28;;;0.70;99.90;;;;;;4985813;23;20096;-78
2022/02/14 06:01:06;;;;;;;8.07;3.90;;;0.80;99.90;;;;;;4939387;29;20032;-79
2022/02/14 06:03:31;;;;;;;8.68;3.92;;;0.70;99.90;;;;;;4939242;29;20039;-78
2022/02/14 06:05:57;;;;;;;7.78;3.45;;;0.70;99.90;;;;;;4955893;29;20035;-78
2022/02/14 06:08:23;;;;;;;6.63;3.00;;;0.70;99.90;;;;;;4938003;29;20399;-77
2022/02/14 06:10:49;;;;;;;10.32;3.88;;;0.60;99.90;;;;;;4938653;29;20039;-80
2022/02/14 06:13:15;;;;;;;7.50;3.20;;;0.70;99.90;;;;;;4938670;29;20038;-78
2022/02/14 06:15:41;;;;;;;10.30;3.35;;;0.60;99.90;;;;;;4923183;28;20055;-79
2022/02/14 06:18:06;;;;;;;8.10;3.53;;;0.90;99.90;;;;;;4955676;29;20053;-80
2022/02/14 06:20:32;;;;;;;16.15;5.53;;;2.00;99.90;;;;;;4955432;29;20087;-79
2022/02/14 06:22:58;;;;;;;9.57;5.45;;;1.00;99.90;;;;;;4956321;29;20082;-78
2022/02/14 06:25:23;;;;;;;10.82;4.72;;;1.00;99.90;;;;;;4959977;28;20026;-78
2022/02/14 06:27:49;;;;;;;9.45;3.33;;;1.10;99.90;;;;;;4946264;29;20042;-78
2022/02/14 06:30:14;;;;;;;9.55;2.70;;;1.00;99.90;;;;;;4954860;29;20024;-79
2022/02/14 06:32:40;;;;;;;4.93;2.33;;;2.70;99.90;;;;;;4922502;28;20027;-79
2022/02/14 06:35:06;;;;;;;4.30;2.70;;;1.90;99.90;;;;;;4936636;28;20570;-78
2022/02/14 06:37:32;;;;;;;6.75;2.60;;;1.20;99.90;;;;;;4951291;28;20027;-80
2022/02/14 06:39:57;;;;;;;5.00;2.40;;;1.20;99.90;;;;;;4950780;28;20023;-78
2022/02/14 06:42:23;;;;;;;5.80;2.25;;;1.00;99.90;;;;;;4955662;29;20031;-78
2022/02/14 06:44:49;;;;;;;7.28;3.10;;;1.00;99.90;;;;;;4938390;29;20027;-78
2022/02/14 06:47:14;;;;;;;8.30;2.70;;;0.90;99.90;;;;;;4937730;29;20085;-79
2022/02/14 06:49:40;;;;;;;16.35;4.25;;;0.80;99.90;;;;;;4920788;28;20036;-78
2022/02/14 06:52:06;;;;;;;9.45;3.58;;;1.20;99.90;;;;;;4958992;29;20027;-77
2022/02/14 06:54:32;;;;;;;8.80;3.35;;;0.90;99.90;;;;;;4942699;28;20027;-79
2022/02/14 06:57:01;;;;;;;6.55;2.70;;;1.10;99.90;;;;;;4922920;28;20041;-78
2022/02/14 06:59:26;;;;;;;6.32;2.40;;;1.90;99.90;;;;;;4954618;28;20035;-78
2022/02/14 07:01:52;;;;;;;11.73;5.07;;;1.60;99.90;;;;;;4952940;28;20118;-78
2022/02/14 07:04:17;;;;;;;7.68;2.90;;;1.90;99.90;;;;;;4937475;28;20034;-78
2022/02/14 07:06:43;;;;;;;10.38;3.13;;;3.20;99.90;;;;;;4936164;29;20031;-77
2022/02/14 07:09:08;;;;;;;8.57;3.08;;;3.60;99.90;;;;;;4951884;29;20499;-77
2022/02/14 07:11:34;;;;;;;11.35;3.17;;;2.70;99.90;;;;;;4954193;29;20042;-77
2022/02/14 07:14:00;;;;;;;10.23;3.17;;;3.90;99.90;;;;;;4954519;29;20110;-78
2022/02/14 07:16:25;;;;;;;9.63;3.13;;;3.10;99.90;;;;;;4937392;28;20098;-78
2022/02/14 07:18:51;;;;;;;11.45;3.28;;;3.20;99.90;;;;;;4921858;29;20103;-79
2022/02/14 07:21:17;;;;;;;11.48;2.92;;;3.40;99.90;;;;;;4912387;28;20040;-76
2022/02/14 07:23:43;;;;;;;14.40;3.03;;;4.30;99.90;;;;;;4939761;28;20036;-77
2022/02/14 07:26:09;;;;;;;9.68;2.88;;;3.40;99.90;;;;;;4941889;28;20038;-79
2022/02/14 07:28:34;;;;;;;9.20;2.10;;;3.40;99.90;;;;;;5006729;28;20043;-78
2022/02/14 07:31:00;;;;;;;7.75;2.30;;;3.50;99.90;;;;;;4952555;29;20066;-78
2022/02/14 07:33:26;;;;;;;4.18;1.95;;;3.40;99.90;;;;;;4944732;28;20095;-77
2022/02/14 07:35:52;;;;;;;5.70;2.38;;;3.60;99.90;;;;;;4947369;29;20023;-77
2022/02/14 07:38:18;;;;;;;7.28;2.17;;;4.10;99.90;;;;;;4927513;28;20031;-80
2022/02/14 07:40:44;;;;;;;5.40;2.03;;;3.90;99.90;;;;;;4938885;29;20026;-78
2022/02/14 07:43:10;;;;;;;7.97;2.75;;;4.10;99.90;;;;;;4941414;28;20039;-79
2022/02/14 07:45:35;;;;;;;5.65;2.10;;;4.20;99.90;;;;;;4953531;29;20049;-80
2022/02/14 07:48:02;;;;;;;7.57;2.03;;;4.10;99.90;;;;;;4960404;29;20036;-79
2022/02/14 07:50:27;;;;;;;5.55;2.50;;;4.20;99.90;;;;;;4965984;28;20051;-80
2022/02/14 07:52:53;;;;;;;8.18;2.33;;;4.30;99.90;;;;;;4961000;28;20034;-80
2022/02/14 07:55:19;;;;;;;5.15;2.30;;;4.70;99.90;;;;;;4947600;29;20447;-80
2022/02/14 07:57:44;;;;;;;8.20;2.60;;;6.00;99.90;;;;;;4922463;28;20118;-79
2022/02/14 08:00:12;;;;;;;6.75;2.60;;;5.80;99.90;;;;;;4956243;29;20039;-77
2022/02/14 08:02:38;;;;;;;7.00;2.30;;;5.10;99.90;;;;;;4959687;28;20031;-79
2022/02/14 08:05:04;;;;;;;7.25;3.65;;;5.20;99.90;;;;;;4956987;28;20491;-79
2022/02/14 08:07:30;;;;;;;8.98;3.63;;;5.30;99.90;;;;;;4938692;29;20043;-77
2022/02/14 08:09:55;;;;;;;6.15;2.85;;;5.40;99.90;;;;;;4954626;28;20039;-78
2022/02/14 08:12:21;;;;;;;8.63;3.05;;;5.60;99.90;;;;;;4937881;28;20043;-79
2022/02/14 08:14:47;;;;;;;8.90;3.75;;;5.40;99.90;;;;;;4920624;28;20047;-78
2022/02/14 08:17:12;;;;;;;8.15;3.47;;;7.00;99.90;;;;;;4937272;29;20043;-79
2022/02/14 08:19:38;;;;;;;6.60;2.72;;;5.80;99.90;;;;;;4936198;28;20162;-79
2022/02/14 08:22:04;;;;;;;9.55;5.15;;;5.70;99.90;;;;;;4926450;29;20042;-78
2022/02/14 08:24:30;;;;;;;13.02;6.80;;;;;;;;;;4934431;29;20026;-78
2022/02/14 08:26:56;;;;;;;17.00;10.60;;;6.10;99.90;;;;;;4951243;28;20513;-79
2022/02/14 08:29:22;;;;;;;5.13;3.38;;;6.30;99.90;;;;;;4967406;28;20032;-80
2022/02/14 08:31:47;;;;;;;6.35;3.97;;;6.90;99.90;;;;;;4957245;28;20039;-79
2022/02/14 08:34:14;;;;;;;6.50;3.10;;;7.60;99.90;;;;;;4943006;28;20039;-79
2022/02/14 08:36:42;;;;;;;8.60;2.97;;;8.10;99.90;;;;;;4957317;29;20077;-79
2022/02/14 08:39:08;;;;;;;5.75;3.13;;;8.20;99.90;;;;;;4940391;29;20135;-79
2022/02/14 08:41:34;;;;;;;5.20;3.63;;;8.30;99.90;;;;;;4957297;29;20055;-79
2022/02/14 08:43:59;;;;;;;7.53;3.47;;;8.50;99.90;;;;;;4941845;28;20085;-79
2022/02/14 08:46:26;;;;;;;9.18;4.22;;;8.00;99.90;;;;;;4940700;29;20063;-79
2022/02/14 08:48:53;;;;;;;6.35;3.70;;;7.80;99.90;;;;;;4958441;28;20040;-79
2022/02/14 08:51:19;;;;;;;5.47;3.45;;;7.50;99.90;;;;;;4942652;29;20039;-79
2022/02/14 08:53:46;;;;;;;9.93;3.75;;;7.40;99.90;;;;;;4960512;29;20484;-79
2022/02/14 08:56:12;;;;;;;8.98;3.90;;;7.60;99.90;;;;;;4944115;28;20035;-80
2022/02/14 08:58:39;;;;;;;6.70;3.38;;;7.10;99.90;;;;;;4960151;28;20035;-79
2022/02/14 09:01:05;;;;;;;6.90;3.78;;;7.70;99.90;;;;;;4961477;29;20078;-79
2022/02/14 09:03:31;;;;;;;7.40;4.03;;;7.40;99.90;;;;;;4944474;29;20051;-80
2022/02/14 09:05:57;;;;;;;7.80;4.50;;;7.40;99.90;;;;;;4944679;28;20027;-79
2022/02/14 09:08:24;;;;;;;8.25;4.28;;;7.10;99.90;;;;;;4924596;29;20039;-79
2022/02/14 09:10:55;;;;;;;8.48;4.35;;;8.40;99.90;;;;;;4947395;29;20043;-79
2022/02/14 09:13:21;;;;;;;8.48;4.60;;;7.30;99.90;;;;;;4949245;28;20031;-79
2022/02/14 09:15:47;;;;;;;12.27;5.18;;;7.30;99.90;;;;;;4946975;29;20077;-79
2022/02/14 09:18:15;;;;;;;12.10;6.15;;;7.60;99.90;;;;;;4968847;28;20035;-79
2022/02/14 09:20:41;;;;;;;9.73;5.47;;;8.10;99.90;;;;;;4933778;28;20027;-79
2022/02/14 09:23:07;;;;;;;13.30;5.32;;;7.90;99.90;;;;;;4962433;28;20034;-79
2022/02/14 09:25:33;;;;;;;14.40;5.47;;;8.30;99.90;;;;;;4962782;29;20027;-79
2022/02/14 09:28:00;;;;;;;12.77;5.10;;;8.40;99.90;;;;;;4944988;29;20038;-79
2022/02/14 09:30:26;;;;;;;9.38;5.13;;;8.40;99.90;;;;;;4962829;29;20019;-79
2022/02/14 09:32:51;;;;;;;14.50;5.63;;;8.90;99.90;;;;;;4946290;29;20089;-79
2022/02/14 09:35:26;;;;;;;9.52;4.35;;;8.70;99.90;;;;;;4961882;29;20028;-79
2022/02/14 09:37:53;;;;;;;9.18;4.72;;;8.70;99.90;;;;;;4928935;28;20062;-79
2022/02/14 09:40:21;;;;;;;9.18;4.78;;;8.80;99.90;;;;;;4943199;28;20089;-79
2022/02/14 09:42:46;;;;;;;9.95;5.00;;;8.70;99.90;;;;;;4962047;29;20023;-80
2022/02/14 09:45:12;;;;;;;10.50;4.90;;;8.70;99.90;;;;;;4948674;29;20042;-80
2022/02/14 09:47:38;;;;;;;12.45;5.50;;;9.50;99.90;;;;;;4933377;28;20035;-80
2022/02/14 09:50:05;;;;;;;13.82;5.35;;;9.00;99.90;;;;;;4934891;28;20484;-80
2022/02/14 09:52:31;;;;;;;8.52;4.70;;;8.80;99.90;;;;;;4929785;29;20135;-80
2022/02/14 09:54:58;;;;;;;14.32;4.63;;;9.10;99.90;;;;;;5013662;28;20035;-80
2022/02/14 09:57:24;;;;;;;10.23;5.72;;;9.10;99.90;;;;;;4952385;28;20038;-80
2022/02/14 09:59:50;;;;;;;11.30;6.35;;;9.40;99.90;;;;;;4967956;28;20031;-80
2022/02/14 10:02:25;;;;;;;13.23;6.07;;;9.20;99.90;;;;;;4952546;29;20495;-79
2022/02/14 10:05:09;;;;;;;14.95;6.00;;;9.30;99.90;;;;;;4945166;28;20521;-79
2022/02/14 10:07:41;;;;;;;11.57;5.43;;;9.70;99.90;;;;;;4938823;28;20031;-78
2022/02/14 10:10:18;;;;;;;8.13;5.32;;;9.80;99.90;;;;;;4955483;28;20031;-80
2022/02/14 10:12:55;;;;;;;11.00;5.00;;;9.90;99.90;;;;;;4954158;29;20027;-79
2022/02/14 10:15:21;;;;;;;10.63;5.55;;;9.90;99.90;;;;;;4947498;28;20039;-79
2022/02/14 10:17:49;;;;;;;10.18;5.80;;;10.10;99.90;;;;;;4953310;29;20088;-78
2022/02/14 10:20:20;;;;;;;12.35;5.93;;;10.70;99.90;;;;;;4934614;28;20030;-78
2022/02/14 10:23:02;;;;;;;12.75;6.07;;;10.50;99.90;;;;;;4950993;29;20019;-78
2022/02/14 10:25:40;;;;;;;12.02;6.05;;;10.80;99.90;;;;;;4950832;28;20053;-78
2022/02/14 10:28:29;;;;;;;14.75;7.97;;;12.60;99.90;;;;;;4951182;28;20081;-78
2022/02/14 10:31:07;;;;;;;8.23;5.40;;;11.40;99.90;;;;;;4944554;29;20022;-78
2022/02/14 10:33:57;;;;;;;9.77;4.70;;;12.50;99.90;;;;;;4916160;29;20028;-77
2022/02/14 10:36:29;;;;;;;8.13;3.80;;;14.10;99.90;;;;;;4932196;29;20035;-78
2022/02/14 10:38:56;;;;;;;9.13;3.90;;;16.40;94.90;;;;;;4949881;29;20027;-78
2022/02/14 10:41:23;;;;;;;6.20;3.25;;;18.60;79.90;;;;;;4957459;29;20624;-78
2022/02/14 10:43:48;;;;;;;5.35;2.80;;;19.20;76.70;;;;;;4932210;28;20035;-77
2022/02/14 10:46:22;;;;;;;7.43;3.30;;;18.90;73.10;;;;;;4935012;29;20027;-81
2022/02/14 10:48:53;;;;;;;7.22;2.72;;;18.50;75.10;;;;;;4955135;29;20024;-78
2022/02/14 10:51:19;;;;;;;3.90;2.05;;;19.10;72.40;;;;;;4954170;29;20027;-79
2022/02/14 10:53:47;;;;;;;8.15;2.30;;;19.10;71.80;;;;;;4955506;29;20019;-78
2022/02/14 10:56:14;;;;;;;6.30;2.08;;;19.30;76.00;;;;;;4962653;29;20054;-79
2022/02/14 10:58:41;;;;;;;6.18;2.35;;;19.40;72.30;;;;;;4943776;28;20047;-79
2022/02/14 11:01:14;;;;;;;5.93;2.53;;;20.70;69.90;;;;;;4960091;29;20028;-80
2022/02/14 11:03:41;;;;;;;4.93;2.03;;;21.60;65.50;;;;;;4964133;28;20023;-80
2022/02/14 11:06:07;;;;;;;5.05;1.60;;;22.00;63.00;;;;;;4959283;29;20452;-79
2022/02/14 11:08:38;;;;;;;5.13;1.50;;;20.90;64.20;;;;;;4956006;29;20051;-77
2022/02/14 11:11:05;;;;;;;3.45;1.25;;;20.40;67.20;;;;;;4954010;29;20027;-78
2022/02/14 11:13:32;;;;;;;3.03;0.90;;;18.10;72.80;;;;;;4935359;29;20236;-78
2022/02/14 11:16:02;;;;;;;7.20;0.75;;;17.00;78.30;;;;;;4952636;28;20083;-78
2022/02/14 11:18:33;;;;;;;1.65;0.73;;;17.00;80.80;;;;;;4951294;29;20051;-78
2022/02/14 11:21:02;;;;;;;1.63;0.70;;;17.00;80.10;;;;;;4950229;28;20028;-77
2022/02/14 11:23:34;;;;;;;1.73;0.77;;;17.00;80.40;;;;;;4936774;28;20028;-78
2022/02/14 11:26:29;;;;;;;1.90;0.60;;;17.10;81.60;;;;;;4956717;29;20023;-78
2022/02/14 11:29:07;;;;;;;1.73;0.60;;;17.00;78.60;;;;;;4953156;29;20492;-78
2022/02/14 11:31:33;;;;;;;4.07;0.60;;;16.50;81.80;;;;;;4938288;28;20036;-80
2022/02/14 11:34:05;;;;;;;4.25;0.60;;;16.20;83.30;;;;;;4942978;29;20501;-79
2022/02/14 11:36:37;;;;;;;1.57;0.87;;;15.80;86.30;;;;;;4961556;29;20051;-79
2022/02/14 11:39:06;;;;;;;2.38;0.73;;;15.70;87.40;;;;;;4953912;29;20306;-78
2022/02/14 11:41:40;;;;;;;2.83;0.77;;;17.80;85.00;;;;;;4953372;28;20023;-78
2022/02/14 11:44:15;;;;;;;3.90;0.70;;;16.70;82.60;;;;;;4945826;29;20032;-79
2022/02/14 11:47:03;;;;;;;1.90;0.80;;;17.00;82.40;;;;;;4957082;28;20031;-79
2022/02/14 11:49:35;;;;;;;4.13;0.73;;;17.70;82.50;;;;;;4963698;28;20043;-79
2022/02/14 11:52:02;;;;;;;1.23;0.40;;;17.50;79.60;;;;;;4963944;29;20039;-79
2022/02/14 11:54:33;;;;;;;2.45;0.73;;;16.30;83.60;;;;;;4947036;28;20161;-79
2022/02/14 11:57:31;;;;;;;3.25;0.50;;;15.70;87.10;;;;;;4947590;28;20035;-79
2022/02/14 12:00:15;;;;;;;7.53;0.60;;;15.70;86.20;;;;;;4948542;29;20043;-79
2022/02/14 12:02:55;;;;;;;2.45;0.60;;;15.70;89.10;;;;;;4967027;29;20042;-79
2022/02/14 12:05:41;;;;;;;3.75;0.77;;;15.50;89.30;;;;;;4962632;29;20039;-79
2022/02/14 12:08:07;;;;;;;5.07;0.80;;;15.40;90.80;;;;;;4956373;29;20046;-79
2022/02/14 12:10:48;;;;;;;4.35;0.90;;;15.20;92.10;;;;;;4948269;29;20031;-79
2022/02/14 12:13:17;;;;;;;4.72;0.90;;;14.80;92.90;;;;;;4946431;29;20020;-79
2022/02/14 12:21:11;;;;;;;4.30;0.70;;;15.60;92.40;;;;;;4964242;29;20550;-78
2022/02/14 12:23:45;;;;;;;2.40;0.57;;;16.40;90.40;;;;;;4953511;29;20037;-79
2022/02/14 12:26:15;;;;;;;1.42;0.50;;;16.30;88.30;;;;;;4977262;28;20062;-79
2022/02/14 12:28:43;;;;;;;3.13;0.70;;;15.80;91.90;;;;;;4943029;28;20495;-79
2022/02/14 12:31:10;;;;;;;2.78;0.80;;;15.20;92.60;;;;;;4970337;28;20023;-78
2022/02/14 12:33:36;;;;;;;2.95;0.90;;;15.10;93.90;;;;;;4945932;28;20058;-79
2022/02/14 12:36:09;;;;;;;1.33;0.52;;;14.70;94.90;;;;;;4966230;29;20028;-78
2022/02/14 12:38:38;;;;;;;2.47;0.70;;;14.40;95.50;;;;;;4948544;28;20027;-78
2022/02/14 12:41:07;;;;;;;3.92;0.70;;;14.30;96.80;;;;;;4966670;29;20019;-78
2022/02/14 12:43:41;;;;;;;3.28;0.88;;;14.40;97.10;;;;;;4951274;28;20024;-78
2022/02/14 12:46:10;;;;;;;2.92;0.80;;;14.40;96.80;;;;;;4966692;29;20038;-79
2022/02/14 12:48:36;;;;;;;3.30;0.57;;;14.60;97.20;;;;;;4961580;28;20031;-79
2022/02/14 12:51:05;;;;;;;2.30;0.82;;;14.80;97.30;;;;;;4944304;29;20033;-79
2022/02/14 12:53:35;;;;;;;4.70;0.90;;;14.60;97.40;;;;;;4950859;28;20047;-79
2022/02/14 12:56:23;;;;;;;3.85;0.65;;;14.70;97.40;;;;;;4953574;28;20031;-79
2022/02/14 12:58:53;;;;;;;2.22;0.70;;;15.30;95.30;;;;;;4948558;28;20054;-79
2022/02/14 13:01:22;;;;;;;4.82;0.60;;;16.20;93.70;;;;;;4937626;28;20103;-78
2022/02/14 13:03:54;;;;;;;3.10;0.90;;;16.90;91.40;;;;;;4932852;28;20027;-78